Time;durP1;ratioP1;P1;durP2;ratioP2;P2;SDS_P1;SDS_P2;PMS_P1;PMS_P2;Temp;Humidity;BMP_temperature;BMP_pressure;BME280_temperature;BME280_humidity;BME280_pressure;Samples;Min_cycle;Max_cycle;Signal;HPM_P1;HPM_P2
2023/12/11 00:01:44;;;;;;;4.53;0.75;;;;;;;;;;5025265;28;20033;-62
2023/12/11 00:04:09;;;;;;;3.53;0.70;;;;;;;;;;5023046;28;20051;-61
2023/12/11 00:06:34;;;;;;;7.50;0.90;;;;;;;;;;5025484;28;20431;-62
2023/12/11 00:09:00;;;;;;;7.40;1.35;;;;;;;;;;5030330;28;20037;-61
2023/12/11 00:11:25;;;;;;;6.60;0.90;;;;;;;;;;5025466;28;20522;-60
2023/12/11 00:13:50;;;;;;;6.68;0.93;;;;;;;;;;5027749;28;20032;-61
2023/12/11 00:16:16;;;;;;;8.95;1.00;;;;;;;;;;5030237;28;20022;-63
2023/12/11 00:18:41;;;;;;;5.95;1.25;;;;;;;;;;5030023;28;20377;-61
2023/12/11 00:21:06;;;;;;;6.73;1.10;;;;;;;;;;5020059;28;20025;-61
2023/12/11 00:23:31;;;;;;;6.72;1.30;;;;;;;;;;5018967;28;20174;-61
2023/12/11 00:25:56;;;;;;;10.02;1.85;;;;;;;;;;5029995;28;20044;-61
2023/12/11 00:28:22;;;;;;;10.27;2.15;;;;;;;;;;5029858;28;20018;-61
2023/12/11 00:30:47;;;;;;;11.18;2.70;;;;;;;;;;5022583;28;20065;-61
2023/12/11 00:33:12;;;;;;;10.18;2.60;;;;;;;;;;5022471;28;20030;-61
2023/12/11 00:35:37;;;;;;;19.33;3.10;;;;;;;;;;5034450;28;20029;-61
2023/12/11 00:38:02;;;;;;;12.52;2.88;;;;;;;;;;5034093;28;20048;-61
2023/12/11 00:40:27;;;;;;;9.52;2.45;;;;;;;;;;5031315;28;20029;-60
2023/12/11 00:42:52;;;;;;;10.05;2.42;;;;;;;;;;5020019;28;20526;-61
2023/12/11 00:45:18;;;;;;;10.55;2.25;;;;;;;;;;5026029;28;20021;-60
2023/12/11 00:47:43;;;;;;;12.03;2.17;;;;;;;;;;5034014;28;20022;-61
2023/12/11 00:50:08;;;;;;;8.05;1.70;;;;;;;;;;5024358;28;20437;-60
2023/12/11 00:52:33;;;;;;;11.73;1.90;;;;;;;;;;5021585;28;20033;-60
2023/12/11 00:54:59;;;;;;;10.83;1.90;;;;;;;;;;5026591;28;20044;-60
2023/12/11 00:57:24;;;;;;;8.02;2.28;;;;;;;;;;5033255;28;20474;-61
2023/12/11 00:59:49;;;;;;;5.87;1.50;;;;;;;;;;5032706;28;20029;-61
2023/12/11 01:02:14;;;;;;;7.60;1.30;;;;;;;;;;5022402;28;20484;-61
2023/12/11 01:04:39;;;;;;;7.00;1.63;;;;;;;;;;5020452;28;20041;-61
2023/12/11 01:07:04;;;;;;;8.25;1.45;;;;;;;;;;5033527;28;20041;-61
2023/12/11 01:09:30;;;;;;;6.63;1.50;;;;;;;;;;5036847;28;20468;-60
2023/12/11 01:11:55;;;;;;;6.53;1.38;;;;;;;;;;5029631;28;20029;-60
2023/12/11 01:14:20;;;;;;;6.17;1.10;;;;;;;;;;5033580;28;20071;-61
2023/12/11 01:16:45;;;;;;;7.27;1.30;;;;;;;;;;5033712;28;20049;-60
2023/12/11 01:19:10;;;;;;;5.07;1.10;;;;;;;;;;5031452;28;20436;-61
2023/12/11 01:21:36;;;;;;;6.87;1.33;;;;;;;;;;5024285;28;20050;-60
2023/12/11 01:24:01;;;;;;;3.58;1.10;;;;;;;;;;5032735;28;20029;-61
2023/12/11 01:26:26;;;;;;;3.80;1.13;;;;;;;;;;5033809;28;20033;-59
2023/12/11 01:28:51;;;;;;;5.15;1.00;;;;;;;;;;5038392;28;20083;-59
2023/12/11 01:31:16;;;;;;;3.60;0.60;;;;;;;;;;5032507;28;20040;-60
2023/12/11 01:33:41;;;;;;;5.18;0.70;;;;;;;;;;5033544;28;20028;-61
2023/12/11 01:36:07;;;;;;;7.50;1.02;;;;;;;;;;5035493;28;20120;-61
2023/12/11 01:38:32;;;;;;;4.20;1.17;;;;;;;;;;5053457;28;20035;-61
2023/12/11 01:40:57;;;;;;;3.42;0.50;;;;;;;;;;5047547;28;20021;-61
2023/12/11 01:43:22;;;;;;;3.13;0.60;;;;;;;;;;5043857;28;20029;-61
2023/12/11 01:45:57;;;;;;;4.43;0.60;;;;;;;;;;5053316;28;20067;-60
2023/12/11 01:48:22;;;;;;;3.90;0.63;;;;;;;;;;5045616;28;20436;-61
2023/12/11 01:50:47;;;;;;;4.10;0.77;;;;;;;;;;5031269;28;20109;-61
2023/12/11 01:53:13;;;;;;;4.87;0.70;;;;;;;;;;5024589;28;20021;-61
2023/12/11 01:55:38;;;;;;;2.65;0.63;;;;;;;;;;5033361;28;20049;-61
2023/12/11 01:58:04;;;;;;;3.77;0.60;;;;;;;;;;5033061;28;20021;-61
2023/12/11 02:00:29;;;;;;;4.78;0.90;;;;;;;;;;5032526;28;20609;-60
2023/12/11 02:02:54;;;;;;;4.53;0.63;;;;;;;;;;5025298;28;20033;-61
2023/12/11 02:05:19;;;;;;;4.43;0.60;;;;;;;;;;5033288;28;20026;-61
2023/12/11 02:07:44;;;;;;;3.70;0.65;;;;;;;;;;5033740;28;20084;-61
2023/12/11 02:10:10;;;;;;;2.33;0.60;;;;;;;;;;5031414;28;20537;-60
2023/12/11 02:12:35;;;;;;;6.47;0.80;;;;;;;;;;5021366;28;20088;-61
2023/12/11 02:15:00;;;;;;;3.97;0.70;;;;;;;;;;5014637;28;20075;-60
2023/12/11 02:17:25;;;;;;;3.70;0.60;;;;;;;;;;5028684;28;20099;-61
2023/12/11 02:19:50;;;;;;;6.38;1.30;;;;;;;;;;5032632;28;20021;-60
2023/12/11 02:22:16;;;;;;;3.13;0.63;;;;;;;;;;5027272;28;20052;-61
2023/12/11 02:24:43;;;;;;;4.37;0.57;;;;;;;;;;5024067;28;20040;-60
2023/12/11 02:27:09;;;;;;;3.50;0.60;;;;;;;;;;5031467;28;20037;-60
2023/12/11 02:29:34;;;;;;;2.97;0.52;;;;;;;;;;5028298;28;20033;-61
2023/12/11 02:31:59;;;;;;;3.65;0.70;;;;;;;;;;5023480;28;20490;-61
2023/12/11 02:34:24;;;;;;;4.85;0.68;;;;;;;;;;5019625;28;20013;-61
2023/12/11 02:36:49;;;;;;;4.15;0.77;;;;;;;;;;5032883;28;20048;-60
2023/12/11 02:39:14;;;;;;;2.93;0.63;;;;;;;;;;5033382;28;20461;-59
2023/12/11 02:41:39;;;;;;;4.40;0.70;;;;;;;;;;5029818;28;20529;-61
2023/12/11 02:44:04;;;;;;;3.63;0.60;;;;;;;;;;5025589;28;20021;-60
2023/12/11 02:46:30;;;;;;;3.97;0.47;;;;;;;;;;5032333;28;20115;-59
2023/12/11 02:48:55;;;;;;;5.93;0.70;;;;;;;;;;5031899;28;20037;-60
2023/12/11 02:51:20;;;;;;;5.05;0.60;;;;;;;;;;5023093;28;20033;-60
2023/12/11 02:53:45;;;;;;;4.45;0.80;;;;;;;;;;5017739;28;20583;-60
2023/12/11 02:56:10;;;;;;;3.95;0.85;;;;;;;;;;5027888;28;20029;-61
2023/12/11 02:58:35;;;;;;;3.80;0.70;;;;;;;;;;5020438;28;20041;-62
2023/12/11 03:01:01;;;;;;;3.75;2.13;;;;;;;;;;5028500;28;20076;-62
2023/12/11 03:03:26;;;;;;;3.38;0.60;;;;;;;;;;5022890;28;20047;-61
2023/12/11 03:05:51;;;;;;;5.63;0.90;;;;;;;;;;5031559;28;20082;-59
2023/12/11 03:08:16;;;;;;;3.83;0.63;;;;;;;;;;5031694;28;20036;-61
2023/12/11 03:10:41;;;;;;;6.80;6.15;;;;;;;;;;5024844;28;20030;-60
2023/12/11 03:13:06;;;;;;;4.20;0.50;;;;;;;;;;5023925;28;20076;-61
2023/12/11 03:15:32;;;;;;;3.60;0.70;;;;;;;;;;5027093;28;20413;-61
2023/12/11 03:17:57;;;;;;;4.10;0.90;;;;;;;;;;5029542;28;20083;-60
2023/12/11 03:20:22;;;;;;;7.07;0.80;;;;;;;;;;5027896;28;20076;-61
2023/12/11 03:22:47;;;;;;;4.03;0.77;;;;;;;;;;5023453;28;20029;-61
2023/12/11 03:25:12;;;;;;;4.60;0.70;;;;;;;;;;5031296;28;20029;-61
2023/12/11 03:27:37;;;;;;;4.15;0.70;;;;;;;;;;5031450;28;20033;-61
2023/12/11 03:30:03;;;;;;;2.95;0.60;;;;;;;;;;5025106;28;20068;-60
2023/12/11 03:32:29;;;;;;;5.25;1.17;;;;;;;;;;5019220;28;20050;-62
2023/12/11 03:34:54;;;;;;;5.30;1.02;;;;;;;;;;5011501;28;20018;-61
2023/12/11 03:37:20;;;;;;;5.60;0.87;;;;;;;;;;5012892;28;20029;-60
2023/12/11 03:39:45;;;;;;;3.93;0.80;;;;;;;;;;5031521;28;20511;-61
2023/12/11 03:42:10;;;;;;;5.60;1.65;;;;;;;;;;5020326;28;20029;-61
2023/12/11 03:44:35;;;;;;;9.07;1.10;;;;;;;;;;5011657;28;20109;-60
2023/12/11 03:47:00;;;;;;;4.03;0.85;;;;;;;;;;5011339;28;20025;-60
2023/12/11 03:49:27;;;;;;;5.95;0.77;;;;;;;;;;5022008;28;20022;-60
2023/12/11 03:51:52;;;;;;;5.85;0.82;;;;;;;;;;5020729;28;20539;-62
2023/12/11 03:54:17;;;;;;;3.47;0.80;;;;;;;;;;5012564;28;20026;-61
2023/12/11 03:56:42;;;;;;;5.28;1.45;;;;;;;;;;5030733;28;20388;-61
2023/12/11 03:59:08;;;;;;;9.15;4.30;;;;;;;;;;5030567;28;20076;-60
2023/12/11 04:01:33;;;;;;;2.15;0.60;;;;;;;;;;5017324;28;20022;-61
2023/12/11 04:03:59;;;;;;;5.70;1.00;;;;;;;;;;5027233;28;20014;-62
2023/12/11 04:06:24;;;;;;;6.55;0.88;;;;;;;;;;5030070;28;20036;-60
2023/12/11 04:08:49;;;;;;;4.68;0.80;;;;;;;;;;5030424;28;20120;-60
2023/12/11 04:11:14;;;;;;;4.67;0.70;;;;;;;;;;5026353;28;20041;-60
2023/12/11 04:13:39;;;;;;;7.20;1.00;;;;;;;;;;5018713;28;20207;-60
2023/12/11 04:16:05;;;;;;;5.95;1.38;;;;;;;;;;5030780;28;20018;-59
2023/12/11 04:18:30;;;;;;;5.25;1.23;;;;;;;;;;5030293;28;20034;-59
2023/12/11 04:20:56;;;;;;;4.03;0.80;;;;;;;;;;5030154;28;20029;-59
2023/12/11 04:23:21;;;;;;;5.05;0.90;;;;;;;;;;5022435;28;20022;-59
2023/12/11 04:25:46;;;;;;;6.03;1.73;;;;;;;;;;5017079;28;20014;-60
2023/12/11 04:28:11;;;;;;;4.00;0.90;;;;;;;;;;5039846;28;20424;-62
2023/12/11 04:30:37;;;;;;;10.17;4.13;;;;;;;;;;5034335;28;20025;-62
2023/12/11 04:33:02;;;;;;;8.32;2.50;;;;;;;;;;5021031;28;20018;-60
2023/12/11 04:35:27;;;;;;;6.88;1.13;;;;;;;;;;5010609;28;20064;-59
2023/12/11 04:37:53;;;;;;;7.28;1.63;;;;;;;;;;5029783;28;20026;-60
2023/12/11 04:40:18;;;;;;;4.35;0.98;;;;;;;;;;5028597;28;20105;-60
2023/12/11 04:42:43;;;;;;;5.80;2.65;;;;;;;;;;5021738;28;20350;-60
2023/12/11 04:45:08;;;;;;;4.18;0.80;;;;;;;;;;5022691;28;20033;-60
2023/12/11 04:47:33;;;;;;;5.90;1.43;;;;;;;;;;5029922;28;20053;-59
2023/12/11 04:49:58;;;;;;;4.75;2.22;;;;;;;;;;5024597;28;20551;-59
2023/12/11 04:52:24;;;;;;;3.38;0.70;;;;;;;;;;5020365;28;20071;-60
2023/12/11 04:54:49;;;;;;;6.73;2.00;;;;;;;;;;5015148;28;20040;-60
2023/12/11 04:57:14;;;;;;;5.30;0.80;;;;;;;;;;5019487;28;20033;-61
2023/12/11 04:59:39;;;;;;;7.57;3.20;;;;;;;;;;5029871;28;20032;-61
2023/12/11 05:02:04;;;;;;;14.53;13.47;;;;;;;;;;5022143;28;20018;-62
2023/12/11 05:04:29;;;;;;;8.98;5.47;;;;;;;;;;5017739;28;20018;-60
2023/12/11 05:06:54;;;;;;;11.50;10.45;;;;;;;;;;5010334;28;20030;-61
2023/12/11 05:09:20;;;;;;;6.63;3.17;;;;;;;;;;5023199;28;20032;-61
2023/12/11 05:11:46;;;;;;;8.43;7.60;;;;;;;;;;5022859;28;20076;-60
2023/12/11 05:14:11;;;;;;;5.50;1.53;;;;;;;;;;5020728;28;20021;-60
2023/12/11 05:16:36;;;;;;;6.23;2.47;;;;;;;;;;5023809;28;20055;-61
2023/12/11 05:19:01;;;;;;;5.32;1.25;;;;;;;;;;5021599;28;20458;-60
2023/12/11 05:21:26;;;;;;;4.40;0.77;;;;;;;;;;5024621;28;20095;-61
2023/12/11 05:23:53;;;;;;;2.90;0.93;;;;;;;;;;5025178;28;20021;-60
2023/12/11 05:26:18;;;;;;;;;;;;;;;;;;5024908;28;20033;-61
2023/12/11 05:28:43;;;;;;;5.15;1.13;;;;;;;;;;5031679;28;19916;-61
2023/12/11 05:31:08;;;;;;;7.63;1.10;;;;;;;;;;5027566;28;20028;-61
2023/12/11 05:33:33;;;;;;;7.10;4.87;;;;;;;;;;5024425;28;20026;-60
2023/12/11 05:35:59;;;;;;;7.18;5.75;;;;;;;;;;5022389;28;20649;-61
2023/12/11 05:38:24;;;;;;;6.73;3.70;;;;;;;;;;5020007;28;20498;-60
2023/12/11 05:40:49;;;;;;;8.88;8.07;;;;;;;;;;5029270;28;20423;-61
2023/12/11 05:43:14;;;;;;;7.63;3.80;;;;;;;;;;5029738;28;20021;-61
2023/12/11 05:45:40;;;;;;;6.60;3.87;;;;;;;;;;5024427;28;20061;-61
2023/12/11 05:48:05;;;;;;;7.97;4.30;;;;;;;;;;5018044;28;20021;-60
2023/12/11 05:50:30;;;;;;;5.85;1.10;;;;;;;;;;5010141;28;20607;-60
2023/12/11 05:52:55;;;;;;;6.50;1.20;;;;;;;;;;5020322;28;20081;-61
2023/12/11 05:55:20;;;;;;;5.25;0.68;;;;;;;;;;5025522;28;20033;-61
2023/12/11 05:57:45;;;;;;;7.05;1.30;;;;;;;;;;5023077;28;20587;-61
2023/12/11 06:00:11;;;;;;;6.60;1.90;;;;;;;;;;5028917;28;20150;-61
2023/12/11 06:02:37;;;;;;;4.90;0.90;;;;;;;;;;5028854;28;20029;-60
2023/12/11 06:05:02;;;;;;;5.83;2.27;;;;;;;;;;5025903;28;20440;-61
2023/12/11 06:07:27;;;;;;;6.35;2.22;;;;;;;;;;5022161;28;20022;-61
2023/12/11 06:09:52;;;;;;;7.15;2.35;;;;;;;;;;5017256;28;20014;-60
2023/12/11 06:12:17;;;;;;;12.52;11.52;;;;;;;;;;5022998;28;20030;-60
2023/12/11 06:14:43;;;;;;;6.00;3.03;;;;;;;;;;5018017;28;20545;-61
2023/12/11 06:17:08;;;;;;;5.53;3.10;;;;;;;;;;5023681;28;20032;-61
2023/12/11 06:19:33;;;;;;;5.63;1.80;;;;;;;;;;5024103;28;20516;-62
2023/12/11 06:21:58;;;;;;;5.37;1.13;;;;;;;;;;5028358;28;20025;-61
2023/12/11 06:24:24;;;;;;;4.15;1.02;;;;;;;;;;5031654;28;20045;-60
2023/12/11 06:26:49;;;;;;;5.87;2.03;;;;;;;;;;5024933;28;20108;-59
2023/12/11 06:29:14;;;;;;;8.23;1.00;;;;;;;;;;5021922;28;20053;-61
2023/12/11 06:31:39;;;;;;;4.77;1.20;;;;;;;;;;5019367;28;20037;-61
2023/12/11 06:34:05;;;;;;;6.63;2.13;;;;;;;;;;5013547;28;20037;-60
2023/12/11 06:36:30;;;;;;;8.20;7.50;;;;;;;;;;5019142;28;20108;-60
2023/12/11 06:38:55;;;;;;;8.60;1.00;;;;;;;;;;5016258;28;20051;-60
2023/12/11 06:41:20;;;;;;;5.63;1.50;;;;;;;;;;5026038;28;20108;-64
2023/12/11 06:43:47;;;;;;;7.82;1.30;;;;;;;;;;5030386;28;20017;-66
2023/12/11 06:46:12;;;;;;;6.93;0.90;;;;;;;;;;5025789;28;20346;-65
2023/12/11 06:48:37;;;;;;;5.73;1.00;;;;;;;;;;5023959;28;20028;-64
2023/12/11 06:51:02;;;;;;;7.38;3.67;;;;;;;;;;5030517;28;20093;-65
2023/12/11 06:53:27;;;;;;;11.50;2.53;;;;;;;;;;5031663;28;20021;-64
2023/12/11 06:55:52;;;;;;;5.85;1.10;;;;;;;;;;5023844;28;20026;-64
2023/12/11 06:58:18;;;;;;;6.93;1.20;;;;;;;;;;5025386;28;20036;-64
2023/12/11 07:00:43;;;;;;;10.85;3.63;;;;;;;;;;5030872;28;20443;-65
2023/12/11 07:03:08;;;;;;;6.28;1.15;;;;;;;;;;5030766;28;20028;-64
2023/12/11 07:05:33;;;;;;;6.32;1.70;;;;;;;;;;5030248;28;20034;-64
2023/12/11 07:07:58;;;;;;;6.78;1.42;;;;;;;;;;5029950;28;20478;-64
2023/12/11 07:10:23;;;;;;;7.22;1.10;;;;;;;;;;5028241;28;20028;-63
2023/12/11 07:12:49;;;;;;;5.25;1.52;;;;;;;;;;5029093;28;20037;-63
2023/12/11 07:15:14;;;;;;;4.82;0.80;;;;;;;;;;5031148;28;20478;-62
2023/12/11 07:17:39;;;;;;;7.27;1.87;;;;;;;;;;5022117;28;20844;-62
2023/12/11 07:20:05;;;;;;;6.30;1.10;;;;;;;;;;5020610;28;20040;-62
2023/12/11 07:22:33;;;;;;;5.75;1.15;;;;;;;;;;5030280;28;20031;-61
2023/12/11 07:24:58;;;;;;;6.15;1.48;;;;;;;;;;5031003;28;20024;-63
2023/12/11 07:27:23;;;;;;;8.32;1.08;;;;;;;;;;5026595;28;20026;-65
2023/12/11 07:29:48;;;;;;;5.97;0.90;;;;;;;;;;5025329;28;20068;-64
2023/12/11 07:32:13;;;;;;;5.35;0.88;;;;;;;;;;5028932;28;20487;-64
2023/12/11 07:34:39;;;;;;;7.55;1.20;;;;;;;;;;5030884;28;20025;-64
2023/12/11 07:37:04;;;;;;;4.50;1.10;;;;;;;;;;5021771;28;20030;-64
2023/12/11 07:39:29;;;;;;;5.45;1.00;;;;;;;;;;5024362;28;20027;-64
2023/12/11 07:41:54;;;;;;;8.77;1.77;;;;;;;;;;5029612;28;20017;-63
2023/12/11 07:44:20;;;;;;;9.05;8.23;;;;;;;;;;5025824;28;20450;-64
2023/12/11 07:46:45;;;;;;;5.32;0.93;;;;;;;;;;5016706;28;20014;-64
2023/12/11 07:49:13;;;;;;;8.83;7.20;;;;;;;;;;5022712;28;20033;-63
2023/12/11 07:51:38;;;;;;;6.63;1.23;;;;;;;;;;5030119;28;20045;-62
2023/12/11 07:54:04;;;;;;;6.82;3.28;;;;;;;;;;5030693;28;20083;-63
2023/12/11 07:56:29;;;;;;;5.33;1.93;;;;;;;;;;5029485;28;20630;-63
2023/12/11 07:58:55;;;;;;;6.43;1.02;;;;;;;;;;5016201;28;20482;-63
2023/12/11 08:01:20;;;;;;;5.50;1.42;;;;;;;;;;5029280;28;20493;-64
2023/12/11 08:03:45;;;;;;;23.35;21.63;;;;;;;;;;5031165;28;20032;-64
2023/12/11 08:06:10;;;;;;;5.75;1.30;;;;;;;;;;5029057;28;20107;-62
2023/12/11 08:08:40;;;;;;;7.07;1.85;;;;;;;;;;5014135;28;20053;-62
2023/12/11 08:11:13;;;;;;;5.82;2.35;;;;;;;;;;5010600;28;20498;-63
2023/12/11 08:13:38;;;;;;;14.52;13.43;;;;;;;;;;5022517;28;20089;-62
2023/12/11 08:16:04;;;;;;;9.57;4.57;;;;;;;;;;5028616;28;20025;-63
2023/12/11 08:18:29;;;;;;;5.57;1.80;;;;;;;;;;5025634;28;20068;-64
2023/12/11 08:20:54;;;;;;;8.80;5.53;;;;;;;;;;5022424;28;20611;-65
2023/12/11 08:23:19;;;;;;;8.10;1.42;;;;;;;;;;5030040;28;20099;-63
2023/12/11 08:25:44;;;;;;;16.38;15.10;;;;;;;;;;5030597;28;20036;-63
2023/12/11 08:28:09;;;;;;;8.02;2.00;;;;;;;;;;5020476;28;20400;-63
2023/12/11 08:30:34;;;;;;;5.22;1.27;;;;;;;;;;5016229;28;20041;-64
2023/12/11 08:32:59;;;;;;;7.82;5.93;;;;;;;;;;5022890;28;20038;-63
2023/12/11 08:35:25;;;;;;;8.60;1.95;;;;;;;;;;5019338;28;20441;-63
2023/12/11 08:37:50;;;;;;;7.27;5.67;;;;;;;;;;5010924;28;20061;-63
2023/12/11 08:40:15;;;;;;;8.23;3.90;;;;;;;;;;5010492;28;20048;-64
2023/12/11 08:42:40;;;;;;;19.97;18.60;;;;;;;;;;5010470;28;20037;-64
2023/12/11 08:45:06;;;;;;;6.70;5.20;;;;;;;;;;5027488;28;20462;-62
2023/12/11 08:47:31;;;;;;;8.38;7.18;;;;;;;;;;5030129;28;20029;-63
2023/12/11 08:49:56;;;;;;;21.70;20.33;;;;;;;;;;5029982;28;20026;-63
2023/12/11 08:52:21;;;;;;;5.75;1.65;;;;;;;;;;5030803;28;20457;-63
2023/12/11 08:54:47;;;;;;;7.40;4.47;;;;;;;;;;5024804;28;20018;-63
2023/12/11 08:57:12;;;;;;;6.32;1.38;;;;;;;;;;5032921;28;20493;-64
2023/12/11 08:59:37;;;;;;;6.38;4.28;;;;;;;;;;5033845;28;20017;-64
2023/12/11 09:02:02;;;;;;;7.75;1.55;;;;;;;;;;5024761;28;20029;-63
2023/12/11 09:04:27;;;;;;;5.27;1.00;;;;;;;;;;5022527;28;20098;-64
2023/12/11 09:06:53;;;;;;;9.65;8.75;;;;;;;;;;5028969;28;20048;-63
2023/12/11 09:09:18;;;;;;;5.10;2.25;;;;;;;;;;5014183;28;20068;-64
2023/12/11 09:11:43;;;;;;;11.05;9.70;;;;;;;;;;5018493;28;20025;-64
2023/12/11 09:14:08;;;;;;;6.78;5.40;;;;;;;;;;5025001;28;20025;-62
2023/12/11 09:16:33;;;;;;;8.93;4.13;;;;;;;;;;5024326;28;20052;-64
2023/12/11 09:18:58;;;;;;;18.33;16.92;;;;;;;;;;5034042;28;20095;-64
2023/12/11 09:21:23;;;;;;;8.85;6.55;;;;;;;;;;5032597;28;20124;-63
2023/12/11 09:23:49;;;;;;;12.67;11.53;;;;;;;;;;5032603;28;20021;-63
2023/12/11 09:26:14;;;;;;;6.13;4.13;;;;;;;;;;5015900;28;20486;-63
2023/12/11 09:28:39;;;;;;;6.38;1.67;;;;;;;;;;5014051;28;20506;-63
2023/12/11 09:31:04;;;;;;;23.17;21.23;;;;;;;;;;5013487;28;20048;-64
2023/12/11 09:33:30;;;;;;;9.02;6.88;;;;;;;;;;5024304;28;20021;-63
2023/12/11 09:35:55;;;;;;;37.38;35.15;;;;;;;;;;5032376;28;20021;-64
2023/12/11 09:38:20;;;;;;;29.60;27.80;;;;;;;;;;5033339;28;20480;-63
2023/12/11 09:40:46;;;;;;;10.48;9.43;;;;;;;;;;5033453;28;20013;-62
2023/12/11 09:43:11;;;;;;;32.88;30.75;;;;;;;;;;5029470;28;20025;-64
2023/12/11 09:45:37;;;;;;;39.67;37.30;;;;;;;;;;5026132;28;20084;-63
2023/12/11 09:48:03;;;;;;;13.50;11.77;;;;;;;;;;5033644;28;20025;-64
2023/12/11 09:50:29;;;;;;;5.30;3.20;;;;;;;;;;5032267;28;20025;-63
2023/12/11 09:52:54;;;;;;;12.52;10.60;;;;;;;;;;5024915;28;20109;-64
2023/12/11 09:55:19;;;;;;;28.30;26.33;;;;;;;;;;5021268;28;20405;-65
2023/12/11 09:57:45;;;;;;;50.17;47.40;;;;;;;;;;5013270;28;20093;-64
2023/12/11 10:00:13;;;;;;;14.25;12.95;;;;;;;;;;5021454;28;20037;-63
2023/12/11 10:02:39;;;;;;;9.40;8.07;;;;;;;;;;5020856;28;20026;-63
2023/12/11 10:05:07;;;;;;;17.25;15.90;;;;;;;;;;5020891;28;20017;-64
2023/12/11 10:07:33;;;;;;;10.13;1.30;;;;;;;;;;5025973;28;20032;-64
2023/12/11 10:09:59;;;;;;;39.85;37.63;;;;;;;;;;5030366;28;20041;-62
2023/12/11 10:12:24;;;;;;;7.22;4.03;;;;;;;;;;5024361;28;20174;-63
2023/12/11 10:15:02;;;;;;;15.05;13.75;;;;;;;;;;5013239;28;20102;-62
2023/12/11 10:17:28;;;;;;;6.97;6.18;;;;;;;;;;5019062;28;20095;-62
2023/12/11 10:19:53;;;;;;;9.20;8.27;;;;;;;;;;5030475;28;20041;-62
2023/12/11 10:22:25;;;;;;;30.03;28.10;;;;;;;;;;5024469;28;20033;-62
2023/12/11 10:24:50;;;;;;;8.27;6.30;;;;;;;;;;5033512;28;20022;-62
2023/12/11 10:27:21;;;;;;;9.60;8.05;;;;;;;;;;5035010;28;20032;-61
2023/12/11 10:29:46;;;;;;;12.73;11.60;;;;;;;;;;5028570;28;20075;-64
2023/12/11 10:32:11;;;;;;;16.05;14.63;;;;;;;;;;5024882;28;20057;-64
2023/12/11 10:34:43;;;;;;;14.35;12.95;;;;;;;;;;5020972;28;20030;-64
2023/12/11 10:37:10;;;;;;;27.05;25.15;;;;;;;;;;5022763;28;20033;-63
2023/12/11 10:39:35;;;;;;;6.18;5.53;;;;;;;;;;5029894;28;20520;-64
2023/12/11 10:42:14;;;;;;;21.20;19.48;;;;;;;;;;5027209;28;20022;-62
2023/12/11 10:44:39;;;;;;;8.18;5.10;;;;;;;;;;5032470;28;20436;-62
2023/12/11 10:47:04;;;;;;;4.50;0.80;;;;;;;;;;5023269;28;20083;-62
2023/12/11 10:49:30;;;;;;;9.70;8.75;;;;;;;;;;5023479;28;20022;-63
2023/12/11 10:51:55;;;;;;;41.00;38.65;;;;;;;;;;5028783;28;20032;-63
2023/12/11 10:54:20;;;;;;;15.02;13.73;;;;;;;;;;5031665;28;20376;-64
2023/12/11 10:56:46;;;;;;;6.93;2.00;;;;;;;;;;5032711;28;20033;-62
2023/12/11 10:59:12;;;;;;;6.45;3.03;;;;;;;;;;5032201;28;20028;-63
2023/12/11 11:01:41;;;;;;;7.53;4.23;;;;;;;;;;5028636;28;20168;-63
2023/12/11 11:04:07;;;;;;;34.83;32.63;;;;;;;;;;5015070;28;20014;-62
2023/12/11 11:06:35;;;;;;;4.68;2.90;;;;;;;;;;5011928;28;20029;-63
2023/12/11 11:09:03;;;;;;;6.82;4.50;;;;;;;;;;5012391;28;20401;-63
2023/12/11 11:11:32;;;;;;;6.13;3.38;;;;;;;;;;5013705;28;20109;-63
2023/12/11 11:14:29;;;;;;;9.85;8.80;;;;;;;;;;5031828;28;20543;-64
2023/12/11 11:16:55;;;;;;;12.23;11.20;;;;;;;;;;5022967;28;20053;-63
2023/12/11 11:19:20;;;;;;;6.25;2.85;;;;;;;;;;5028696;28;20431;-63
2023/12/11 11:22:04;;;;;;;4.93;2.30;;;;;;;;;;5028114;28;20025;-63
2023/12/11 11:24:29;;;;;;;7.03;3.53;;;;;;;;;;5020161;28;20455;-62
2023/12/11 11:26:54;;;;;;;23.48;22.08;;;;;;;;;;5016406;28;20482;-63
2023/12/11 11:29:36;;;;;;;7.90;4.43;;;;;;;;;;5011923;28;20025;-63
2023/12/11 11:32:02;;;;;;;9.68;7.35;;;;;;;;;;5019956;28;20052;-63
2023/12/11 11:34:39;;;;;;;5.60;1.90;;;;;;;;;;5031442;28;20053;-63
2023/12/11 11:37:04;;;;;;;8.20;3.03;;;;;;;;;;5029554;28;20017;-64
2023/12/11 11:39:48;;;;;;;8.53;6.93;;;;;;;;;;5019634;28;20080;-63
2023/12/11 11:42:13;;;;;;;9.05;8.23;;;;;;;;;;5010648;28;20034;-63
2023/12/11 11:44:38;;;;;;;23.93;22.33;;;;;;;;;;5011394;28;20082;-63
2023/12/11 11:47:04;;;;;;;16.20;15.15;;;;;;;;;;5011308;28;20041;-63
2023/12/11 11:49:34;;;;;;;20.43;18.97;;;;;;;;;;5011091;28;20075;-63
2023/12/11 11:52:02;;;;;;;12.55;11.30;;;;;;;;;;5009352;28;20014;-63
2023/12/11 11:54:28;;;;;;;3.83;1.20;;;;;;;;;;5020992;28;20104;-63
2023/12/11 11:56:53;;;;;;;;;;;;;;;;;;5031561;28;20562;-63
2023/12/11 11:59:19;;;;;;;6.20;2.17;;;;;;;;;;5029862;28;20281;-62
2023/12/11 12:02:02;;;;;;;13.27;12.13;;;;;;;;;;5030049;28;20100;-63
2023/12/11 12:04:28;;;;;;;13.15;11.98;;;;;;;;;;5015987;28;20406;-63
2023/12/11 12:06:55;;;;;;;9.40;8.55;;;;;;;;;;5011166;28;20018;-62
2023/12/11 12:09:20;;;;;;;;;;;;;;;;;;5020985;28;20115;-64
2023/12/11 12:11:45;;;;;;;4.88;3.15;;;;;;;;;;5010534;28;19906;-63
2023/12/11 12:14:11;;;;;;;6.75;2.13;;;;;;;;;;5011259;28;20038;-63
2023/12/11 12:16:37;;;;;;;5.28;2.67;;;;;;;;;;5010923;28;20033;-63
2023/12/11 12:19:02;;;;;;;10.88;5.68;;;;;;;;;;5013189;28;20022;-64
2023/12/11 12:21:28;;;;;;;5.47;2.80;;;;;;;;;;5029022;28;20083;-63
2023/12/11 12:23:59;;;;;;;8.88;8.13;;;;;;;;;;5029285;28;20033;-63
2023/12/11 12:26:25;;;;;;;4.13;2.88;;;;;;;;;;5020196;28;20045;-63
2023/12/11 12:28:50;;;;;;;25.48;24.10;;;;;;;;;;5029909;28;20041;-63
2023/12/11 12:31:16;;;;;;;3.63;1.67;;;;;;;;;;5029908;28;20030;-63
2023/12/11 12:33:41;;;;;;;4.60;3.20;;;;;;;;;;5030197;28;20075;-63
2023/12/11 12:36:06;;;;;;;7.70;7.03;;;;;;;;;;5030064;28;20525;-63
2023/12/11 12:38:31;;;;;;;5.70;1.85;;;;;;;;;;5027019;28;20018;-63
2023/12/11 12:40:56;;;;;;;3.95;2.03;;;;;;;;;;5022130;28;20101;-63
2023/12/11 12:43:24;;;;;;;2.45;1.42;;;;;;;;;;5013886;28;20021;-63
2023/12/11 12:45:49;;;;;;;23.08;21.65;;;;;;;;;;5024959;28;20076;-63
2023/12/11 12:48:14;;;;;;;4.80;0.90;;;;;;;;;;5029785;28;20029;-63
2023/12/11 12:50:39;;;;;;;6.53;4.77;;;;;;;;;;5033123;28;20026;-63
2023/12/11 12:53:05;;;;;;;6.53;5.45;;;;;;;;;;5033004;28;20120;-63
2023/12/11 12:55:31;;;;;;;11.02;10.23;;;;;;;;;;5027429;28;20102;-62
2023/12/11 12:57:57;;;;;;;12.93;12.03;;;;;;;;;;5024425;28;20128;-63
2023/12/11 13:00:22;;;;;;;5.25;1.27;;;;;;;;;;5013739;28;20040;-63
2023/12/11 13:02:48;;;;;;;10.75;9.85;;;;;;;;;;5008389;28;20406;-62
2023/12/11 13:05:14;;;;;;;15.15;14.15;;;;;;;;;;5026090;28;20112;-63
2023/12/11 13:07:39;;;;;;;5.07;2.83;;;;;;;;;;5028769;28;20112;-63
2023/12/11 13:10:10;;;;;;;31.83;30.02;;;;;;;;;;5027684;28;20428;-68
2023/12/11 13:12:35;;;;;;;18.40;16.88;;;;;;;;;;5020054;28;20105;-63
2023/12/11 13:15:00;;;;;;;7.00;6.33;;;;;;;;;;5013561;28;20592;-63
2023/12/11 13:17:25;;;;;;;12.20;11.13;;;;;;;;;;5023632;28;20024;-63
2023/12/11 13:19:51;;;;;;;5.10;1.08;;;;;;;;;;5027045;28;20076;-62
2023/12/11 13:22:16;;;;;;;4.20;1.63;;;;;;;;;;5026656;28;20082;-63
2023/12/11 13:24:41;;;;;;;11.00;10.15;;;;;;;;;;5020823;28;20033;-62
2023/12/11 13:27:07;;;;;;;3.88;0.93;;;;;;;;;;5014246;28;20096;-63
2023/12/11 13:29:32;;;;;;;8.17;6.80;;;;;;;;;;5012694;28;20036;-63
2023/12/11 13:31:58;;;;;;;3.87;2.77;;;;;;;;;;5025489;28;20026;-63
2023/12/11 13:34:23;;;;;;;7.90;7.13;;;;;;;;;;5025810;28;20025;-64
2023/12/11 13:36:48;;;;;;;9.75;8.82;;;;;;;;;;5026127;28;20036;-63
2023/12/11 13:39:13;;;;;;;11.00;10.30;;;;;;;;;;5026747;28;20041;-63
2023/12/11 13:41:38;;;;;;;12.83;12.00;;;;;;;;;;5020479;28;20796;-63
2023/12/11 13:44:04;;;;;;;4.53;3.50;;;;;;;;;;5026288;28;20032;-63
2023/12/11 13:46:29;;;;;;;5.27;3.33;;;;;;;;;;5012713;28;20553;-63
2023/12/11 13:48:54;;;;;;;3.85;1.85;;;;;;;;;;5019725;28;20052;-63
2023/12/11 13:51:20;;;;;;;4.43;3.08;;;;;;;;;;5027452;28;20808;-64
2023/12/11 13:53:45;;;;;;;3.45;1.27;;;;;;;;;;5029833;28;20029;-63
2023/12/11 13:56:10;;;;;;;4.88;1.45;;;;;;;;;;5029059;28;20081;-63
2023/12/11 13:58:35;;;;;;;4.23;2.13;;;;;;;;;;5018244;28;20052;-63
2023/12/11 14:01:01;;;;;;;5.25;2.53;;;;;;;;;;5016232;28;20105;-63
2023/12/11 14:03:26;;;;;;;4.75;1.70;;;;;;;;;;5008532;28;20044;-61
2023/12/11 14:05:51;;;;;;;12.15;11.25;;;;;;;;;;5015417;28;20473;-63
2023/12/11 14:08:17;;;;;;;9.80;9.10;;;;;;;;;;5027835;28;20169;-63
2023/12/11 14:10:42;;;;;;;5.03;3.17;;;;;;;;;;5028381;28;20053;-63
2023/12/11 14:13:12;;;;;;;7.53;6.72;;;;;;;;;;5020582;28;20052;-63
2023/12/11 14:15:37;;;;;;;27.77;26.00;;;;;;;;;;5025065;28;20067;-63
2023/12/11 14:18:03;;;;;;;8.02;7.25;;;;;;;;;;5027534;28;20393;-63
2023/12/11 14:20:29;;;;;;;6.75;4.45;;;;;;;;;;5028617;28;20037;-63
2023/12/11 14:22:54;;;;;;;2.92;0.85;;;;;;;;;;5026119;28;20021;-63
2023/12/11 14:25:20;;;;;;;3.13;0.67;;;;;;;;;;5027657;28;20179;-64
2023/12/11 14:27:45;;;;;;;3.90;1.70;;;;;;;;;;5022688;28;20025;-63
2023/12/11 14:30:10;;;;;;;4.50;0.90;;;;;;;;;;5017433;28;20042;-64